sensor_id;sensor_type;location;lat;lon;timestamp;P1;durP1;ratioP1;P2;durP2;ratioP2
27491;SDS011;14927;51.210;6.838;2023-03-01T00:01:06;7.45;;;5.03;;
27491;SDS011;14927;51.210;6.838;2023-03-01T00:03:54;8.18;;;5.22;;
27491;SDS011;14927;51.210;6.838;2023-03-01T00:06:39;9.70;;;5.15;;
27491;SDS011;14927;51.210;6.838;2023-03-01T00:09:26;7.90;;;5.40;;
27491;SDS011;14927;51.210;6.838;2023-03-01T00:12:11;10.52;;;5.47;;
27491;SDS011;14927;51.210;6.838;2023-03-01T00:14:55;9.40;;;5.68;;
27491;SDS011;14927;51.210;6.838;2023-03-01T00:17:40;10.98;;;6.20;;
27491;SDS011;14927;51.210;6.838;2023-03-01T00:20:25;12.07;;;5.38;;
27491;SDS011;14927;51.210;6.838;2023-03-01T00:23:09;9.93;;;5.43;;
27491;SDS011;14927;51.210;6.838;2023-03-01T00:25:55;9.20;;;5.97;;
27491;SDS011;14927;51.210;6.838;2023-03-01T00:28:40;7.72;;;5.38;;
27491;SDS011;14927;51.210;6.838;2023-03-01T00:31:27;8.90;;;5.28;;
27491;SDS011;14927;51.210;6.838;2023-03-01T00:34:14;12.65;;;6.30;;
27491;SDS011;14927;51.210;6.838;2023-03-01T00:36:58;10.60;;;6.80;;
27491;SDS011;14927;51.210;6.838;2023-03-01T00:39:48;12.25;;;5.97;;
27491;SDS011;14927;51.210;6.838;2023-03-01T00:42:33;19.67;;;5.88;;
27491;SDS011;14927;51.210;6.838;2023-03-01T00:45:18;8.38;;;5.63;;
27491;SDS011;14927;51.210;6.838;2023-03-01T00:48:03;8.85;;;5.65;;
27491;SDS011;14927;51.210;6.838;2023-03-01T00:50:49;8.68;;;5.43;;
27491;SDS011;14927;51.210;6.838;2023-03-01T00:53:33;8.45;;;5.82;;
27491;SDS011;14927;51.210;6.838;2023-03-01T00:56:18;9.73;;;5.90;;
27491;SDS011;14927;51.210;6.838;2023-03-01T00:59:03;9.80;;;5.80;;
27491;SDS011;14927;51.210;6.838;2023-03-01T01:01:48;9.35;;;6.13;;
27491;SDS011;14927;51.210;6.838;2023-03-01T01:04:32;12.13;;;6.07;;
27491;SDS011;14927;51.210;6.838;2023-03-01T01:07:17;9.50;;;5.88;;
27491;SDS011;14927;51.210;6.838;2023-03-01T01:10:03;10.52;;;6.22;;
27491;SDS011;14927;51.210;6.838;2023-03-01T01:12:49;9.32;;;5.65;;
27491;SDS011;14927;51.210;6.838;2023-03-01T01:15:34;11.90;;;5.75;;
27491;SDS011;14927;51.210;6.838;2023-03-01T01:18:19;8.40;;;5.30;;
27491;SDS011;14927;51.210;6.838;2023-03-01T01:21:07;11.13;;;5.47;;
27491;SDS011;14927;51.210;6.838;2023-03-01T01:23:55;12.00;;;5.75;;
27491;SDS011;14927;51.210;6.838;2023-03-01T01:26:40;9.60;;;5.75;;
27491;SDS011;14927;51.210;6.838;2023-03-01T01:29:26;13.85;;;6.55;;
27491;SDS011;14927;51.210;6.838;2023-03-01T01:32:10;10.00;;;6.47;;
27491;SDS011;14927;51.210;6.838;2023-03-01T01:34:55;8.70;;;5.40;;
27491;SDS011;14927;51.210;6.838;2023-03-01T01:37:40;10.23;;;5.70;;
27491;SDS011;14927;51.210;6.838;2023-03-01T01:40:24;10.70;;;5.63;;
27491;SDS011;14927;51.210;6.838;2023-03-01T01:43:31;11.93;;;6.60;;
27491;SDS011;14927;51.210;6.838;2023-03-01T01:46:31;11.15;;;6.45;;
27491;SDS011;14927;51.210;6.838;2023-03-01T01:52:17;14.50;;;7.20;;
27491;SDS011;14927;51.210;6.838;2023-03-01T01:55:08;11.68;;;7.07;;
27491;SDS011;14927;51.210;6.838;2023-03-01T01:58:05;10.73;;;7.00;;
27491;SDS011;14927;51.210;6.838;2023-03-01T02:00:53;11.25;;;6.82;;
27491;SDS011;14927;51.210;6.838;2023-03-01T02:03:39;11.63;;;6.32;;
27491;SDS011;14927;51.210;6.838;2023-03-01T02:06:41;12.68;;;7.43;;
27491;SDS011;14927;51.210;6.838;2023-03-01T02:09:47;10.02;;;5.97;;
27491;SDS011;14927;51.210;6.838;2023-03-01T02:12:34;8.57;;;6.22;;
27491;SDS011;14927;51.210;6.838;2023-03-01T02:15:19;10.40;;;6.15;;
27491;SDS011;14927;51.210;6.838;2023-03-01T02:18:04;9.70;;;6.40;;
27491;SDS011;14927;51.210;6.838;2023-03-01T02:21:00;15.30;;;6.38;;
27491;SDS011;14927;51.210;6.838;2023-03-01T02:24:29;14.38;;;6.07;;
27491;SDS011;14927;51.210;6.838;2023-03-01T02:27:45;11.07;;;6.13;;
27491;SDS011;14927;51.210;6.838;2023-03-01T02:30:54;9.43;;;5.78;;
27491;SDS011;14927;51.210;6.838;2023-03-01T02:33:58;12.82;;;6.43;;
27491;SDS011;14927;51.210;6.838;2023-03-01T02:36:45;12.93;;;6.00;;
27491;SDS011;14927;51.210;6.838;2023-03-01T02:39:39;9.80;;;6.10;;
27491;SDS011;14927;51.210;6.838;2023-03-01T02:42:30;11.95;;;6.78;;
27491;SDS011;14927;51.210;6.838;2023-03-01T02:45:20;12.68;;;6.10;;
27491;SDS011;14927;51.210;6.838;2023-03-01T02:48:05;10.45;;;6.53;;
27491;SDS011;14927;51.210;6.838;2023-03-01T02:56:56;10.73;;;6.50;;
27491;SDS011;14927;51.210;6.838;2023-03-01T02:59:41;10.57;;;6.15;;
27491;SDS011;14927;51.210;6.838;2023-03-01T03:02:28;9.77;;;7.10;;
27491;SDS011;14927;51.210;6.838;2023-03-01T03:05:21;11.52;;;6.28;;
27491;SDS011;14927;51.210;6.838;2023-03-01T03:08:14;11.07;;;6.95;;
27491;SDS011;14927;51.210;6.838;2023-03-01T03:11:07;10.35;;;6.30;;
27491;SDS011;14927;51.210;6.838;2023-03-01T03:13:52;11.07;;;6.40;;
27491;SDS011;14927;51.210;6.838;2023-03-01T03:16:36;9.05;;;6.22;;
27491;SDS011;14927;51.210;6.838;2023-03-01T03:19:25;12.07;;;6.93;;
27491;SDS011;14927;51.210;6.838;2023-03-01T03:22:09;14.00;;;6.95;;
27491;SDS011;14927;51.210;6.838;2023-03-01T03:24:54;11.93;;;7.13;;
27491;SDS011;14927;51.210;6.838;2023-03-01T03:27:39;11.20;;;7.00;;
27491;SDS011;14927;51.210;6.838;2023-03-01T03:30:27;11.95;;;7.03;;
27491;SDS011;14927;51.210;6.838;2023-03-01T03:33:14;11.60;;;6.85;;
27491;SDS011;14927;51.210;6.838;2023-03-01T03:35:59;9.73;;;6.25;;
27491;SDS011;14927;51.210;6.838;2023-03-01T03:38:44;11.10;;;6.63;;
27491;SDS011;14927;51.210;6.838;2023-03-01T03:41:29;10.52;;;6.93;;
27491;SDS011;14927;51.210;6.838;2023-03-01T03:44:14;10.30;;;6.40;;
27491;SDS011;14927;51.210;6.838;2023-03-01T03:46:58;14.82;;;6.95;;
27491;SDS011;14927;51.210;6.838;2023-03-01T03:49:43;11.27;;;6.88;;
27491;SDS011;14927;51.210;6.838;2023-03-01T03:52:27;10.98;;;7.53;;
27491;SDS011;14927;51.210;6.838;2023-03-01T03:55:12;14.32;;;6.78;;
27491;SDS011;14927;51.210;6.838;2023-03-01T03:57:57;13.10;;;7.15;;
27491;SDS011;14927;51.210;6.838;2023-03-01T04:00:46;10.05;;;7.18;;
27491;SDS011;14927;51.210;6.838;2023-03-01T04:03:34;12.60;;;7.10;;
27491;SDS011;14927;51.210;6.838;2023-03-01T04:06:19;14.77;;;7.45;;
27491;SDS011;14927;51.210;6.838;2023-03-01T04:09:04;14.50;;;7.35;;
27491;SDS011;14927;51.210;6.838;2023-03-01T04:11:48;12.13;;;7.47;;
27491;SDS011;14927;51.210;6.838;2023-03-01T04:14:33;12.60;;;7.72;;
27491;SDS011;14927;51.210;6.838;2023-03-01T04:17:18;11.77;;;7.40;;
27491;SDS011;14927;51.210;6.838;2023-03-01T04:20:02;13.75;;;7.93;;
27491;SDS011;14927;51.210;6.838;2023-03-01T04:22:49;14.75;;;7.45;;
27491;SDS011;14927;51.210;6.838;2023-03-01T04:25:47;11.82;;;7.47;;
27491;SDS011;14927;51.210;6.838;2023-03-01T04:28:39;10.27;;;7.10;;
27491;SDS011;14927;51.210;6.838;2023-03-01T04:34:13;16.77;;;7.32;;
27491;SDS011;14927;51.210;6.838;2023-03-01T04:36:57;14.55;;;8.60;;
27491;SDS011;14927;51.210;6.838;2023-03-01T04:39:42;14.95;;;7.68;;
27491;SDS011;14927;51.210;6.838;2023-03-01T04:42:30;11.07;;;7.80;;
27491;SDS011;14927;51.210;6.838;2023-03-01T04:45:15;11.07;;;7.68;;
27491;SDS011;14927;51.210;6.838;2023-03-01T04:48:00;16.35;;;8.48;;
27491;SDS011;14927;51.210;6.838;2023-03-01T04:50:44;12.80;;;8.07;;
27491;SDS011;14927;51.210;6.838;2023-03-01T04:53:29;15.40;;;8.80;;
27491;SDS011;14927;51.210;6.838;2023-03-01T04:56:14;12.13;;;8.48;;
27491;SDS011;14927;51.210;6.838;2023-03-01T04:59:01;10.82;;;7.55;;
27491;SDS011;14927;51.210;6.838;2023-03-01T05:01:49;15.00;;;8.07;;
27491;SDS011;14927;51.210;6.838;2023-03-01T05:04:35;17.45;;;9.35;;
27491;SDS011;14927;51.210;6.838;2023-03-01T05:07:20;12.65;;;8.35;;
27491;SDS011;14927;51.210;6.838;2023-03-01T05:10:05;18.30;;;8.32;;
27491;SDS011;14927;51.210;6.838;2023-03-01T05:12:50;14.18;;;9.27;;
27491;SDS011;14927;51.210;6.838;2023-03-01T05:15:35;16.90;;;8.60;;
27491;SDS011;14927;51.210;6.838;2023-03-01T05:18:20;13.70;;;9.07;;
27491;SDS011;14927;51.210;6.838;2023-03-01T05:21:10;16.42;;;9.68;;
27491;SDS011;14927;51.210;6.838;2023-03-01T05:23:59;14.38;;;9.27;;
27491;SDS011;14927;51.210;6.838;2023-03-01T05:26:44;14.88;;;8.73;;
27491;SDS011;14927;51.210;6.838;2023-03-01T05:29:29;18.77;;;9.02;;
27491;SDS011;14927;51.210;6.838;2023-03-01T05:32:18;16.85;;;9.63;;
27491;SDS011;14927;51.210;6.838;2023-03-01T05:35:03;16.05;;;9.82;;
27491;SDS011;14927;51.210;6.838;2023-03-01T05:37:48;19.02;;;9.60;;
27491;SDS011;14927;51.210;6.838;2023-03-01T05:40:33;15.05;;;8.90;;
27491;SDS011;14927;51.210;6.838;2023-03-01T05:43:18;13.93;;;9.30;;
27491;SDS011;14927;51.210;6.838;2023-03-01T05:46:03;15.43;;;8.93;;
27491;SDS011;14927;51.210;6.838;2023-03-01T05:48:58;13.23;;;8.77;;
27491;SDS011;14927;51.210;6.838;2023-03-01T05:51:47;14.63;;;8.93;;
27491;SDS011;14927;51.210;6.838;2023-03-01T05:54:33;14.75;;;10.18;;
27491;SDS011;14927;51.210;6.838;2023-03-01T05:57:18;16.20;;;10.85;;
27491;SDS011;14927;51.210;6.838;2023-03-01T06:00:03;15.02;;;9.50;;
27491;SDS011;14927;51.210;6.838;2023-03-01T06:02:49;13.02;;;9.02;;
27491;SDS011;14927;51.210;6.838;2023-03-01T06:05:35;16.77;;;9.13;;
27491;SDS011;14927;51.210;6.838;2023-03-01T06:08:20;16.42;;;9.60;;
27491;SDS011;14927;51.210;6.838;2023-03-01T06:11:05;15.85;;;9.23;;
27491;SDS011;14927;51.210;6.838;2023-03-01T06:13:51;14.55;;;9.68;;
27491;SDS011;14927;51.210;6.838;2023-03-01T06:16:35;14.82;;;9.57;;
27491;SDS011;14927;51.210;6.838;2023-03-01T06:19:20;17.00;;;9.63;;
27491;SDS011;14927;51.210;6.838;2023-03-01T06:22:04;14.68;;;9.93;;
27491;SDS011;14927;51.210;6.838;2023-03-01T06:24:49;16.42;;;9.30;;
27491;SDS011;14927;51.210;6.838;2023-03-01T06:27:34;16.00;;;9.45;;
27491;SDS011;14927;51.210;6.838;2023-03-01T06:30:19;15.80;;;10.18;;
27491;SDS011;14927;51.210;6.838;2023-03-01T06:33:05;16.27;;;9.63;;
27491;SDS011;14927;51.210;6.838;2023-03-01T06:35:50;19.05;;;10.23;;
27491;SDS011;14927;51.210;6.838;2023-03-01T06:38:35;16.05;;;9.68;;
27491;SDS011;14927;51.210;6.838;2023-03-01T06:41:20;15.75;;;9.88;;
27491;SDS011;14927;51.210;6.838;2023-03-01T06:44:05;20.92;;;9.13;;
27491;SDS011;14927;51.210;6.838;2023-03-01T06:46:49;16.27;;;10.38;;
27491;SDS011;14927;51.210;6.838;2023-03-01T06:49:34;17.48;;;10.35;;
27491;SDS011;14927;51.210;6.838;2023-03-01T06:52:18;14.65;;;9.73;;
27491;SDS011;14927;51.210;6.838;2023-03-01T06:55:03;20.20;;;10.05;;
27491;SDS011;14927;51.210;6.838;2023-03-01T06:57:48;17.40;;;9.93;;
27491;SDS011;14927;51.210;6.838;2023-03-01T07:00:38;15.73;;;9.88;;
27491;SDS011;14927;51.210;6.838;2023-03-01T07:03:24;18.00;;;9.98;;
27491;SDS011;14927;51.210;6.838;2023-03-01T07:06:09;16.42;;;9.82;;
27491;SDS011;14927;51.210;6.838;2023-03-01T07:08:54;20.65;;;10.45;;
27491;SDS011;14927;51.210;6.838;2023-03-01T07:11:38;21.65;;;10.75;;
27491;SDS011;14927;51.210;6.838;2023-03-01T07:14:23;21.08;;;10.57;;
27491;SDS011;14927;51.210;6.838;2023-03-01T07:17:09;23.27;;;10.35;;
27491;SDS011;14927;51.210;6.838;2023-03-01T07:19:53;19.10;;;9.95;;
27491;SDS011;14927;51.210;6.838;2023-03-01T07:22:41;20.65;;;12.68;;
27491;SDS011;14927;51.210;6.838;2023-03-01T07:25:26;15.35;;;10.35;;
27491;SDS011;14927;51.210;6.838;2023-03-01T07:28:10;21.30;;;11.10;;
27491;SDS011;14927;51.210;6.838;2023-03-01T07:30:55;22.90;;;11.10;;
27491;SDS011;14927;51.210;6.838;2023-03-01T07:33:46;16.90;;;10.32;;
27491;SDS011;14927;51.210;6.838;2023-03-01T07:36:33;15.50;;;10.55;;
27491;SDS011;14927;51.210;6.838;2023-03-01T07:39:18;20.83;;;11.10;;
27491;SDS011;14927;51.210;6.838;2023-03-01T07:42:03;17.35;;;10.02;;
27491;SDS011;14927;51.210;6.838;2023-03-01T07:44:48;16.88;;;10.98;;
27491;SDS011;14927;51.210;6.838;2023-03-01T07:47:32;21.92;;;10.60;;
27491;SDS011;14927;51.210;6.838;2023-03-01T07:50:18;23.67;;;10.95;;
27491;SDS011;14927;51.210;6.838;2023-03-01T07:53:03;16.83;;;10.52;;
27491;SDS011;14927;51.210;6.838;2023-03-01T07:55:59;16.67;;;10.63;;
27491;SDS011;14927;51.210;6.838;2023-03-01T07:58:56;20.38;;;11.00;;
27491;SDS011;14927;51.210;6.838;2023-03-01T08:01:43;20.05;;;11.68;;
27491;SDS011;14927;51.210;6.838;2023-03-01T08:04:27;18.50;;;11.15;;
27491;SDS011;14927;51.210;6.838;2023-03-01T08:07:12;18.55;;;10.55;;
27491;SDS011;14927;51.210;6.838;2023-03-01T08:09:57;16.45;;;11.07;;
27491;SDS011;14927;51.210;6.838;2023-03-01T08:12:41;22.23;;;11.02;;
27491;SDS011;14927;51.210;6.838;2023-03-01T08:15:26;19.73;;;11.10;;
27491;SDS011;14927;51.210;6.838;2023-03-01T08:18:10;16.30;;;10.90;;
27491;SDS011;14927;51.210;6.838;2023-03-01T08:20:55;17.80;;;11.35;;
27491;SDS011;14927;51.210;6.838;2023-03-01T08:23:44;18.40;;;10.57;;
27491;SDS011;14927;51.210;6.838;2023-03-01T08:26:29;16.48;;;10.77;;
27491;SDS011;14927;51.210;6.838;2023-03-01T08:29:14;15.45;;;11.07;;
27491;SDS011;14927;51.210;6.838;2023-03-01T08:31:59;17.40;;;11.13;;
27491;SDS011;14927;51.210;6.838;2023-03-01T08:34:46;22.42;;;10.95;;
27491;SDS011;14927;51.210;6.838;2023-03-01T08:37:31;17.83;;;11.40;;
27491;SDS011;14927;51.210;6.838;2023-03-01T08:40:16;18.45;;;11.20;;
27491;SDS011;14927;51.210;6.838;2023-03-01T08:43:01;25.73;;;11.18;;
27491;SDS011;14927;51.210;6.838;2023-03-01T08:45:48;18.10;;;10.82;;
27491;SDS011;14927;51.210;6.838;2023-03-01T08:48:33;16.30;;;10.73;;
27491;SDS011;14927;51.210;6.838;2023-03-01T08:51:18;17.48;;;11.18;;
27491;SDS011;14927;51.210;6.838;2023-03-01T08:54:14;31.02;;;11.90;;
27491;SDS011;14927;51.210;6.838;2023-03-01T08:57:03;24.98;;;11.18;;
27491;SDS011;14927;51.210;6.838;2023-03-01T08:59:48;15.95;;;10.48;;
27491;SDS011;14927;51.210;6.838;2023-03-01T09:02:33;21.30;;;11.70;;
27491;SDS011;14927;51.210;6.838;2023-03-01T09:05:17;18.35;;;11.43;;
27491;SDS011;14927;51.210;6.838;2023-03-01T09:08:03;16.05;;;10.60;;
27491;SDS011;14927;51.210;6.838;2023-03-01T09:10:48;20.13;;;10.40;;
27491;SDS011;14927;51.210;6.838;2023-03-01T09:13:33;18.83;;;11.35;;
27491;SDS011;14927;51.210;6.838;2023-03-01T09:16:19;17.90;;;10.55;;
27491;SDS011;14927;51.210;6.838;2023-03-01T09:19:05;17.63;;;10.70;;
27491;SDS011;14927;51.210;6.838;2023-03-01T09:21:49;15.07;;;10.27;;
27491;SDS011;14927;51.210;6.838;2023-03-01T09:24:37;18.83;;;11.40;;
27491;SDS011;14927;51.210;6.838;2023-03-01T09:27:23;17.63;;;10.88;;
27491;SDS011;14927;51.210;6.838;2023-03-01T09:30:09;18.00;;;11.32;;
27491;SDS011;14927;51.210;6.838;2023-03-01T09:32:56;18.48;;;10.60;;
27491;SDS011;14927;51.210;6.838;2023-03-01T09:35:41;20.42;;;10.82;;
27491;SDS011;14927;51.210;6.838;2023-03-01T09:38:29;19.80;;;10.75;;
27491;SDS011;14927;51.210;6.838;2023-03-01T09:41:24;15.25;;;10.20;;
27491;SDS011;14927;51.210;6.838;2023-03-01T09:47:25;19.85;;;10.23;;
27491;SDS011;14927;51.210;6.838;2023-03-01T09:50:18;17.75;;;9.98;;
27491;SDS011;14927;51.210;6.838;2023-03-01T09:53:12;17.50;;;10.63;;
27491;SDS011;14927;51.210;6.838;2023-03-01T09:56:05;20.60;;;10.60;;
27491;SDS011;14927;51.210;6.838;2023-03-01T10:02:13;14.55;;;8.60;;
27491;SDS011;14927;51.210;6.838;2023-03-01T10:11:20;16.10;;;9.02;;
27491;SDS011;14927;51.210;6.838;2023-03-01T10:14:19;15.77;;;9.15;;
27491;SDS011;14927;51.210;6.838;2023-03-01T10:17:44;23.65;;;9.68;;
27491;SDS011;14927;51.210;6.838;2023-03-01T10:20:42;13.68;;;9.05;;
27491;SDS011;14927;51.210;6.838;2023-03-01T10:24:01;14.30;;;8.77;;
27491;SDS011;14927;51.210;6.838;2023-03-01T10:26:58;12.10;;;6.30;;
27491;SDS011;14927;51.210;6.838;2023-03-01T10:29:59;16.77;;;8.75;;
27491;SDS011;14927;51.210;6.838;2023-03-01T10:33:01;12.43;;;8.05;;
27491;SDS011;14927;51.210;6.838;2023-03-01T10:35:47;15.93;;;8.80;;
27491;SDS011;14927;51.210;6.838;2023-03-01T10:38:46;14.80;;;9.50;;
27491;SDS011;14927;51.210;6.838;2023-03-01T10:42:02;14.38;;;8.63;;
27491;SDS011;14927;51.210;6.838;2023-03-01T10:44:49;13.15;;;8.02;;
27491;SDS011;14927;51.210;6.838;2023-03-01T10:47:35;15.38;;;9.00;;
27491;SDS011;14927;51.210;6.838;2023-03-01T10:50:22;20.13;;;8.68;;
27491;SDS011;14927;51.210;6.838;2023-03-01T10:56:11;14.85;;;8.70;;
27491;SDS011;14927;51.210;6.838;2023-03-01T11:01:44;15.80;;;9.25;;
27491;SDS011;14927;51.210;6.838;2023-03-01T11:04:29;15.32;;;9.60;;
27491;SDS011;14927;51.210;6.838;2023-03-01T11:07:14;14.35;;;9.80;;
27491;SDS011;14927;51.210;6.838;2023-03-01T11:09:59;15.65;;;9.43;;
27491;SDS011;14927;51.210;6.838;2023-03-01T11:13:08;15.95;;;8.82;;
27491;SDS011;14927;51.210;6.838;2023-03-01T11:16:03;13.63;;;9.27;;
27491;SDS011;14927;51.210;6.838;2023-03-01T11:21:54;14.02;;;8.65;;
27491;SDS011;14927;51.210;6.838;2023-03-01T11:25:03;14.05;;;9.15;;
27491;SDS011;14927;51.210;6.838;2023-03-01T11:27:50;17.20;;;8.88;;
27491;SDS011;14927;51.210;6.838;2023-03-01T11:30:46;13.90;;;8.38;;
27491;SDS011;14927;51.210;6.838;2023-03-01T11:36:58;13.77;;;8.68;;
27491;SDS011;14927;51.210;6.838;2023-03-01T11:39:51;14.32;;;9.23;;
27491;SDS011;14927;51.210;6.838;2023-03-01T11:54:53;11.85;;;8.45;;
27491;SDS011;14927;51.210;6.838;2023-03-01T12:14:48;16.83;;;8.70;;
27491;SDS011;14927;51.210;6.838;2023-03-01T12:21:46;16.95;;;9.07;;
27491;SDS011;14927;51.210;6.838;2023-03-01T12:35:16;11.23;;;7.55;;
27491;SDS011;14927;51.210;6.838;2023-03-01T12:39:42;13.50;;;6.97;;
27491;SDS011;14927;51.210;6.838;2023-03-01T12:42:29;13.25;;;7.93;;
27491;SDS011;14927;51.210;6.838;2023-03-01T12:45:54;12.15;;;6.70;;
27491;SDS011;14927;51.210;6.838;2023-03-01T12:48:58;12.68;;;6.32;;
27491;SDS011;14927;51.210;6.838;2023-03-01T12:55:30;10.45;;;5.97;;
27491;SDS011;14927;51.210;6.838;2023-03-01T12:58:32;7.93;;;5.50;;
27491;SDS011;14927;51.210;6.838;2023-03-01T13:01:42;10.18;;;5.90;;
27491;SDS011;14927;51.210;6.838;2023-03-01T13:11:04;8.07;;;5.18;;
27491;SDS011;14927;51.210;6.838;2023-03-01T13:14:44;7.93;;;5.38;;
27491;SDS011;14927;51.210;6.838;2023-03-01T13:17:07;10.45;;;5.93;;
27491;SDS011;14927;51.210;6.838;2023-03-01T13:20:17;7.55;;;5.25;;
27491;SDS011;14927;51.210;6.838;2023-03-01T13:26:17;7.57;;;4.75;;
27491;SDS011;14927;51.210;6.838;2023-03-01T13:29:02;9.15;;;5.55;;
27491;SDS011;14927;51.210;6.838;2023-03-01T13:34:39;7.03;;;5.05;;
27491;SDS011;14927;51.210;6.838;2023-03-01T13:37:34;6.82;;;4.93;;
27491;SDS011;14927;51.210;6.838;2023-03-01T13:46:21;5.18;;;4.43;;
27491;SDS011;14927;51.210;6.838;2023-03-01T13:49:14;6.97;;;4.90;;
27491;SDS011;14927;51.210;6.838;2023-03-01T13:52:03;7.55;;;5.25;;
27491;SDS011;14927;51.210;6.838;2023-03-01T13:54:50;8.43;;;4.82;;
27491;SDS011;14927;51.210;6.838;2023-03-01T13:57:36;5.82;;;4.50;;
27491;SDS011;14927;51.210;6.838;2023-03-01T14:00:29;7.88;;;4.65;;
27491;SDS011;14927;51.210;6.838;2023-03-01T14:03:22;7.05;;;5.45;;
27491;SDS011;14927;51.210;6.838;2023-03-01T14:09:16;13.48;;;5.75;;
27491;SDS011;14927;51.210;6.838;2023-03-01T14:15:19;8.43;;;5.03;;
27491;SDS011;14927;51.210;6.838;2023-03-01T14:21:07;6.10;;;4.55;;
27491;SDS011;14927;51.210;6.838;2023-03-01T14:23:52;6.05;;;4.95;;
27491;SDS011;14927;51.210;6.838;2023-03-01T14:26:37;9.52;;;5.22;;
27491;SDS011;14927;51.210;6.838;2023-03-01T14:29:33;8.20;;;4.93;;
27491;SDS011;14927;51.210;6.838;2023-03-01T14:32:22;6.80;;;4.80;;
27491;SDS011;14927;51.210;6.838;2023-03-01T14:35:51;5.63;;;4.25;;
27491;SDS011;14927;51.210;6.838;2023-03-01T14:44:21;6.70;;;4.55;;
27491;SDS011;14927;51.210;6.838;2023-03-01T14:47:12;7.32;;;4.50;;
27491;SDS011;14927;51.210;6.838;2023-03-01T14:50:08;6.75;;;4.95;;
27491;SDS011;14927;51.210;6.838;2023-03-01T14:53:07;7.70;;;4.78;;
27491;SDS011;14927;51.210;6.838;2023-03-01T14:56:15;9.73;;;4.07;;
27491;SDS011;14927;51.210;6.838;2023-03-01T14:59:02;5.78;;;4.30;;
27491;SDS011;14927;51.210;6.838;2023-03-01T15:01:47;7.50;;;5.10;;
27491;SDS011;14927;51.210;6.838;2023-03-01T15:04:33;7.05;;;4.60;;
27491;SDS011;14927;51.210;6.838;2023-03-01T15:07:17;8.10;;;4.50;;
27491;SDS011;14927;51.210;6.838;2023-03-01T15:10:04;6.40;;;4.72;;
27491;SDS011;14927;51.210;6.838;2023-03-01T15:12:55;6.35;;;4.90;;
27491;SDS011;14927;51.210;6.838;2023-03-01T15:16:04;8.18;;;5.43;;
27491;SDS011;14927;51.210;6.838;2023-03-01T15:19:03;7.43;;;5.07;;
27491;SDS011;14927;51.210;6.838;2023-03-01T15:21:50;9.23;;;5.65;;
27491;SDS011;14927;51.210;6.838;2023-03-01T15:24:34;8.35;;;5.32;;
27491;SDS011;14927;51.210;6.838;2023-03-01T15:27:20;10.60;;;5.65;;
27491;SDS011;14927;51.210;6.838;2023-03-01T15:30:13;12.65;;;5.35;;
27491;SDS011;14927;51.210;6.838;2023-03-01T15:33:19;7.30;;;5.40;;
27491;SDS011;14927;51.210;6.838;2023-03-01T15:36:30;9.65;;;6.07;;
27491;SDS011;14927;51.210;6.838;2023-03-01T15:48:05;6.78;;;4.68;;
27491;SDS011;14927;51.210;6.838;2023-03-01T15:51:04;10.45;;;5.55;;
27491;SDS011;14927;51.210;6.838;2023-03-01T15:53:58;10.32;;;6.30;;
27491;SDS011;14927;51.210;6.838;2023-03-01T15:56:47;7.22;;;4.93;;
27491;SDS011;14927;51.210;6.838;2023-03-01T15:59:31;10.52;;;5.80;;
27491;SDS011;14927;51.210;6.838;2023-03-01T16:02:16;8.85;;;4.85;;
27491;SDS011;14927;51.210;6.838;2023-03-01T16:05:00;9.35;;;5.20;;
27491;SDS011;14927;51.210;6.838;2023-03-01T16:07:45;7.07;;;4.55;;
27491;SDS011;14927;51.210;6.838;2023-03-01T16:10:30;7.75;;;4.72;;
27491;SDS011;14927;51.210;6.838;2023-03-01T16:13:16;9.10;;;4.82;;
27491;SDS011;14927;51.210;6.838;2023-03-01T16:16:01;6.00;;;4.63;;
27491;SDS011;14927;51.210;6.838;2023-03-01T16:18:46;11.18;;;5.10;;
27491;SDS011;14927;51.210;6.838;2023-03-01T16:21:30;7.30;;;4.85;;
27491;SDS011;14927;51.210;6.838;2023-03-01T16:24:15;7.18;;;5.15;;
27491;SDS011;14927;51.210;6.838;2023-03-01T16:27:01;7.70;;;4.93;;
27491;SDS011;14927;51.210;6.838;2023-03-01T16:29:46;11.50;;;5.63;;
27491;SDS011;14927;51.210;6.838;2023-03-01T16:32:31;8.30;;;4.90;;
27491;SDS011;14927;51.210;6.838;2023-03-01T16:35:17;9.57;;;5.72;;
27491;SDS011;14927;51.210;6.838;2023-03-01T16:38:04;8.30;;;5.25;;
27491;SDS011;14927;51.210;6.838;2023-03-01T16:40:49;7.72;;;5.10;;
27491;SDS011;14927;51.210;6.838;2023-03-01T16:43:35;9.07;;;5.60;;
27491;SDS011;14927;51.210;6.838;2023-03-01T16:46:21;10.73;;;5.55;;
27491;SDS011;14927;51.210;6.838;2023-03-01T16:49:09;7.37;;;4.90;;
27491;SDS011;14927;51.210;6.838;2023-03-01T16:51:56;9.57;;;5.35;;
27491;SDS011;14927;51.210;6.838;2023-03-01T16:54:42;7.07;;;5.00;;
27491;SDS011;14927;51.210;6.838;2023-03-01T16:57:26;7.07;;;5.25;;
27491;SDS011;14927;51.210;6.838;2023-03-01T17:00:11;8.00;;;5.45;;
27491;SDS011;14927;51.210;6.838;2023-03-01T17:02:57;11.73;;;5.57;;
27491;SDS011;14927;51.210;6.838;2023-03-01T17:05:41;10.90;;;5.43;;
27491;SDS011;14927;51.210;6.838;2023-03-01T17:08:26;8.88;;;5.80;;
27491;SDS011;14927;51.210;6.838;2023-03-01T17:11:15;8.05;;;5.03;;
27491;SDS011;14927;51.210;6.838;2023-03-01T17:14:01;8.75;;;5.97;;
27491;SDS011;14927;51.210;6.838;2023-03-01T17:16:46;11.15;;;5.32;;
27491;SDS011;14927;51.210;6.838;2023-03-01T17:19:31;10.05;;;6.05;;
27491;SDS011;14927;51.210;6.838;2023-03-01T17:22:15;10.48;;;6.05;;
27491;SDS011;14927;51.210;6.838;2023-03-01T17:25:00;12.13;;;7.20;;
27491;SDS011;14927;51.210;6.838;2023-03-01T17:27:45;10.07;;;5.70;;
27491;SDS011;14927;51.210;6.838;2023-03-01T17:30:29;9.57;;;5.70;;
27491;SDS011;14927;51.210;6.838;2023-03-01T17:33:14;13.73;;;6.00;;
27491;SDS011;14927;51.210;6.838;2023-03-01T17:35:59;8.50;;;5.47;;
27491;SDS011;14927;51.210;6.838;2023-03-01T17:38:44;11.98;;;5.55;;
27491;SDS011;14927;51.210;6.838;2023-03-01T17:41:29;8.98;;;5.65;;
27491;SDS011;14927;51.210;6.838;2023-03-01T17:44:14;9.00;;;5.95;;
27491;SDS011;14927;51.210;6.838;2023-03-01T17:46:58;14.35;;;5.78;;
27491;SDS011;14927;51.210;6.838;2023-03-01T17:49:44;8.35;;;5.47;;
27491;SDS011;14927;51.210;6.838;2023-03-01T17:52:29;10.02;;;5.95;;
27491;SDS011;14927;51.210;6.838;2023-03-01T17:55:14;13.80;;;6.07;;
27491;SDS011;14927;51.210;6.838;2023-03-01T17:57:59;10.43;;;5.43;;
27491;SDS011;14927;51.210;6.838;2023-03-01T18:00:43;10.18;;;6.35;;
27491;SDS011;14927;51.210;6.838;2023-03-01T18:03:28;8.52;;;5.38;;
27491;SDS011;14927;51.210;6.838;2023-03-01T18:06:13;8.90;;;5.75;;
27491;SDS011;14927;51.210;6.838;2023-03-01T18:09:01;13.43;;;6.25;;
27491;SDS011;14927;51.210;6.838;2023-03-01T18:11:46;8.60;;;5.80;;
27491;SDS011;14927;51.210;6.838;2023-03-01T18:14:31;9.68;;;6.55;;
27491;SDS011;14927;51.210;6.838;2023-03-01T18:17:16;9.70;;;5.85;;
27491;SDS011;14927;51.210;6.838;2023-03-01T18:20:01;15.68;;;5.97;;
27491;SDS011;14927;51.210;6.838;2023-03-01T18:22:46;13.95;;;5.82;;
27491;SDS011;14927;51.210;6.838;2023-03-01T18:25:31;13.18;;;5.75;;
27491;SDS011;14927;51.210;6.838;2023-03-01T18:28:16;8.48;;;5.88;;
27491;SDS011;14927;51.210;6.838;2023-03-01T18:31:02;10.60;;;5.80;;
27491;SDS011;14927;51.210;6.838;2023-03-01T18:33:52;11.75;;;6.30;;
27491;SDS011;14927;51.210;6.838;2023-03-01T18:36:37;10.27;;;5.85;;
27491;SDS011;14927;51.210;6.838;2023-03-01T18:39:22;9.15;;;5.60;;
27491;SDS011;14927;51.210;6.838;2023-03-01T18:42:07;12.55;;;6.30;;
27491;SDS011;14927;51.210;6.838;2023-03-01T18:44:52;9.35;;;5.85;;
27491;SDS011;14927;51.210;6.838;2023-03-01T18:47:36;9.20;;;5.05;;
27491;SDS011;14927;51.210;6.838;2023-03-01T18:50:21;9.23;;;5.22;;